Time;durP1;ratioP1;P1;durP2;ratioP2;P2;SDS_P1;SDS_P2;PMS_P1;PMS_P2;Temp;Humidity;BMP_temperature;BMP_pressure;BME280_temperature;BME280_humidity;BME280_pressure;Samples;Min_cycle;Max_cycle;Signal;HPM_P1;HPM_P2
2022/03/11 00:02:02;;;;;;;67.60;10.10;;;;;;;;;;5093134;28;20692;-68
2022/03/11 00:04:29;;;;;;;71.18;9.80;;;;;;;;;;5093369;28;20227;-67
2022/03/11 00:06:57;;;;;;;70.22;9.90;;;;;;;;;;5093222;28;20224;-68
2022/03/11 00:09:25;;;;;;;66.43;9.23;;;;;;;;;;5091404;28;20207;-68
2022/03/11 00:11:52;;;;;;;73.47;11.50;;;;;;;;;;5093147;28;20212;-68
2022/03/11 00:14:19;;;;;;;71.60;10.93;;;;;;;;;;5092910;28;20208;-71
2022/03/11 00:16:47;;;;;;;68.32;10.23;;;;;;;;;;5093114;28;20220;-68
2022/03/11 00:19:14;;;;;;;78.95;12.50;;;;;;;;;;5092331;28;20228;-68
2022/03/11 00:21:41;;;;;;;78.90;13.85;;;;;;;;;;5093084;28;20286;-71
2022/03/11 00:24:09;;;;;;;80.13;11.50;;;;;;;;;;5092838;28;20706;-68
2022/03/11 00:26:37;;;;;;;74.03;11.90;;;;;;;;;;5092758;28;20682;-68
2022/03/11 00:29:04;;;;;;;84.78;17.65;;;;;;;;;;5091771;28;20210;-68
2022/03/11 00:31:39;;;;;;;74.85;11.15;;;;;;;;;;5130281;27;21045;-68
2022/03/11 00:34:06;;;;;;;71.95;12.52;;;;;;;;;;5130134;27;20576;-68
2022/03/11 00:36:33;;;;;;;81.20;14.20;;;;;;;;;;5130150;27;20227;-68
2022/03/11 00:39:00;;;;;;;72.55;12.13;;;;;;;;;;5129298;27;20694;-68
2022/03/11 00:41:28;;;;;;;71.50;11.85;;;;;;;;;;5130021;27;20646;-67
2022/03/11 00:43:55;;;;;;;72.38;11.73;;;;;;;;;;5129785;27;20293;-67
2022/03/11 00:46:22;;;;;;;70.40;10.10;;;;;;;;;;5129833;27;20272;-68
2022/03/11 00:48:51;;;;;;;74.15;12.45;;;;;;;;;;5129248;27;20198;-67
2022/03/11 00:51:18;;;;;;;68.25;11.35;;;;;;;;;;5129773;27;20219;-70
2022/03/11 00:53:45;;;;;;;72.00;11.35;;;;;;;;;;5129746;27;20241;-68
2022/03/11 00:56:12;;;;;;;68.85;10.70;;;;;;;;;;5129539;27;20249;-69
2022/03/11 00:58:39;;;;;;;73.60;11.65;;;;;;;;;;5129305;27;20641;-68
2022/03/11 01:01:06;;;;;;;72.45;11.05;;;;;;;;;;5129641;27;20215;-69
2022/03/11 01:03:34;;;;;;;72.63;11.55;;;;;;;;;;5129625;27;20294;-69
2022/03/11 01:06:02;;;;;;;72.80;12.38;;;;;;;;;;5129482;27;20258;-67
2022/03/11 01:08:29;;;;;;;72.85;12.13;;;;;;;;;;5128684;27;20290;-67
2022/03/11 01:10:57;;;;;;;71.03;11.77;;;;;;;;;;5129609;27;20595;-67
2022/03/11 01:13:24;;;;;;;78.57;12.98;;;;;;;;;;5129509;27;20638;-67
2022/03/11 01:15:51;;;;;;;77.70;12.32;;;;;;;;;;5129391;27;20237;-67
2022/03/11 01:18:18;;;;;;;73.72;12.00;;;;;;;;;;5128918;27;20202;-67
2022/03/11 01:20:45;;;;;;;71.70;12.40;;;;;;;;;;5129496;27;20230;-67
2022/03/11 01:23:14;;;;;;;71.30;12.98;;;;;;;;;;5129356;27;20395;-68
2022/03/11 01:25:42;;;;;;;71.55;11.55;;;;;;;;;;5129469;27;20223;-69
2022/03/11 01:28:09;;;;;;;80.07;12.95;;;;;;;;;;5128698;27;20249;-68
2022/03/11 01:30:37;;;;;;;74.80;12.88;;;;;;;;;;5129303;27;20581;-67
2022/03/11 01:33:04;;;;;;;72.25;12.27;;;;;;;;;;5128971;27;20297;-67
2022/03/11 01:35:31;;;;;;;75.35;13.27;;;;;;;;;;5128777;27;20254;-70
2022/03/11 01:37:58;;;;;;;76.28;13.88;;;;;;;;;;5128280;27;20243;-68
2022/03/11 01:40:27;;;;;;;73.45;13.13;;;;;;;;;;5129106;27;20293;-69
2022/03/11 01:42:54;;;;;;;74.72;13.65;;;;;;;;;;5115882;27;20286;-69
2022/03/11 01:45:21;;;;;;;74.50;12.18;;;;;;;;;;5115518;28;20319;-69
2022/03/11 01:47:48;;;;;;;81.60;13.95;;;;;;;;;;5114496;28;20203;-68
2022/03/11 01:50:15;;;;;;;76.22;13.52;;;;;;;;;;5114888;28;20580;-68
2022/03/11 01:52:42;;;;;;;74.40;13.93;;;;;;;;;;5115145;28;20230;-68
2022/03/11 01:55:10;;;;;;;75.75;13.38;;;;;;;;;;5114971;28;20585;-71
2022/03/11 01:57:39;;;;;;;74.15;12.70;;;;;;;;;;5113919;28;20744;-70
2022/03/11 02:00:06;;;;;;;75.63;13.13;;;;;;;;;;5114831;28;20210;-68
2022/03/11 02:02:34;;;;;;;74.65;13.25;;;;;;;;;;5114782;28;20218;-68
2022/03/11 02:05:01;;;;;;;74.40;12.70;;;;;;;;;;5114550;28;20208;-68
2022/03/11 02:07:29;;;;;;;79.57;13.88;;;;;;;;;;5114181;28;20207;-69
2022/03/11 02:09:56;;;;;;;74.60;13.25;;;;;;;;;;5114577;28;20217;-70
2022/03/11 02:12:29;;;;;;;77.97;13.85;;;;;;;;;;5114575;28;20295;-68
2022/03/11 02:14:58;;;;;;;72.68;12.60;;;;;;;;;;5114556;28;20731;-69
2022/03/11 02:17:25;;;;;;;75.25;13.82;;;;;;;;;;5113757;28;20584;-69
2022/03/11 02:19:52;;;;;;;78.22;14.07;;;;;;;;;;5114442;28;20695;-71
2022/03/11 02:22:23;;;;;;;77.85;14.68;;;;;;;;;;5114280;28;20722;-68
2022/03/11 02:24:52;;;;;;;83.18;15.25;;;;;;;;;;5114522;28;20207;-71
2022/03/11 02:27:19;;;;;;;79.22;14.40;;;;;;;;;;5113543;28;20219;-69
2022/03/11 02:29:46;;;;;;;75.35;13.50;;;;;;;;;;5114424;28;20298;-68
2022/03/11 02:32:13;;;;;;;75.72;14.32;;;;;;;;;;5114701;28;20290;-69
2022/03/11 02:34:40;;;;;;;73.03;13.50;;;;;;;;;;5114393;28;20310;-68
2022/03/11 02:37:09;;;;;;;78.95;14.85;;;;;;;;;;5113787;28;20764;-71
2022/03/11 02:39:36;;;;;;;77.90;14.35;;;;;;;;;;5114104;28;20260;-69
2022/03/11 02:42:05;;;;;;;77.80;15.73;;;;;;;;;;5113948;28;20211;-70
2022/03/11 02:44:32;;;;;;;76.10;14.55;;;;;;;;;;5110615;28;20199;-68
2022/03/11 02:47:00;;;;;;;75.22;13.07;;;;;;;;;;5113799;28;20227;-70
2022/03/11 02:49:27;;;;;;;86.18;15.45;;;;;;;;;;5113345;28;20207;-70
2022/03/11 02:51:56;;;;;;;76.15;15.48;;;;;;;;;;5113802;28;20223;-68
2022/03/11 02:54:24;;;;;;;78.60;15.43;;;;;;;;;;5112505;28;20695;-70
2022/03/11 02:56:51;;;;;;;84.82;15.75;;;;;;;;;;5113616;28;20223;-68
2022/03/11 02:59:19;;;;;;;78.57;15.75;;;;;;;;;;5113068;28;20294;-68
2022/03/11 03:01:46;;;;;;;75.88;14.68;;;;;;;;;;5113630;28;20672;-69
2022/03/11 03:04:14;;;;;;;83.72;15.55;;;;;;;;;;5113379;28;20199;-69
2022/03/11 03:06:41;;;;;;;78.63;15.02;;;;;;;;;;5113396;27;20223;-68
2022/03/11 03:09:08;;;;;;;82.18;15.57;;;;;;;;;;5112482;28;20212;-69
2022/03/11 03:11:35;;;;;;;78.40;13.75;;;;;;;;;;5113479;28;20340;-68
2022/03/11 03:14:02;;;;;;;76.43;14.65;;;;;;;;;;5113376;28;20221;-69
2022/03/11 03:16:31;;;;;;;78.90;14.65;;;;;;;;;;5113313;28;20736;-68
2022/03/11 03:18:58;;;;;;;80.00;15.02;;;;;;;;;;5112613;28;20603;-68
2022/03/11 03:21:27;;;;;;;77.18;15.85;;;;;;;;;;5113092;28;20210;-68
2022/03/11 03:23:54;;;;;;;77.07;15.48;;;;;;;;;;5113326;28;20248;-70
2022/03/11 03:26:21;;;;;;;76.63;14.68;;;;;;;;;;5113103;28;20291;-69
2022/03/11 03:28:49;;;;;;;75.32;14.43;;;;;;;;;;5112425;28;20675;-69
2022/03/11 03:31:19;;;;;;;76.43;14.38;;;;;;;;;;5112950;28;20246;-69
2022/03/11 03:33:48;;;;;;;77.68;14.60;;;;;;;;;;5112775;28;20290;-68
2022/03/11 03:36:15;;;;;;;78.30;13.35;;;;;;;;;;5112892;28;20592;-69
2022/03/11 03:38:43;;;;;;;75.35;15.18;;;;;;;;;;5111949;28;20294;-70
2022/03/11 03:41:10;;;;;;;81.80;14.45;;;;;;;;;;5112853;28;20199;-69
2022/03/11 03:43:37;;;;;;;79.38;14.07;;;;;;;;;;5112848;28;20299;-69
2022/03/11 03:46:06;;;;;;;79.20;13.43;;;;;;;;;;5112795;28;20244;-69
2022/03/11 03:48:34;;;;;;;84.45;15.65;;;;;;;;;;5111968;28;20287;-68
2022/03/11 03:51:02;;;;;;;80.95;13.15;;;;;;;;;;5112653;28;20264;-69
2022/03/11 03:53:30;;;;;;;77.68;14.25;;;;;;;;;;5112559;28;20695;-68
2022/03/11 03:55:57;;;;;;;77.55;13.82;;;;;;;;;;5112512;28;20698;-70
2022/03/11 03:58:24;;;;;;;78.95;13.00;;;;;;;;;;5112011;28;20203;-68
2022/03/11 04:00:51;;;;;;;76.15;13.32;;;;;;;;;;5112497;28;20208;-69
2022/03/11 04:03:18;;;;;;;75.47;14.00;;;;;;;;;;5112444;28;20298;-68
2022/03/11 04:05:46;;;;;;;74.75;13.20;;;;;;;;;;5112351;28;20314;-68
2022/03/11 04:08:14;;;;;;;75.00;12.57;;;;;;;;;;5111854;28;20210;-68
2022/03/11 04:10:41;;;;;;;73.20;11.68;;;;;;;;;;5112505;28;20220;-69
2022/03/11 04:13:08;;;;;;;71.68;11.85;;;;;;;;;;5112381;28;20554;-68
2022/03/11 04:15:36;;;;;;;71.50;11.98;;;;;;;;;;5112185;28;20220;-69
2022/03/11 04:18:03;;;;;;;72.43;12.75;;;;;;;;;;5111788;28;20295;-69
2022/03/11 04:20:30;;;;;;;74.18;12.20;;;;;;;;;;5112224;28;20585;-70
2022/03/11 04:22:57;;;;;;;73.28;11.32;;;;;;;;;;5112157;28;20298;-68
2022/03/11 04:25:25;;;;;;;71.03;11.02;;;;;;;;;;5112228;28;20311;-69
2022/03/11 04:27:53;;;;;;;75.20;12.05;;;;;;;;;;5111524;28;20214;-69
2022/03/11 04:30:20;;;;;;;71.70;10.82;;;;;;;;;;5112275;28;20247;-71
2022/03/11 04:32:47;;;;;;;72.63;11.45;;;;;;;;;;5112016;28;20226;-69
2022/03/11 04:35:14;;;;;;;75.57;12.07;;;;;;;;;;5112273;28;20206;-69
2022/03/11 04:37:41;;;;;;;79.75;12.10;;;;;;;;;;5111185;28;20294;-69
2022/03/11 04:40:09;;;;;;;69.88;11.30;;;;;;;;;;5112188;28;20299;-68
2022/03/11 04:42:37;;;;;;;69.15;9.65;;;;;;;;;;5112000;28;20676;-71
2022/03/11 04:45:05;;;;;;;67.05;8.88;;;;;;;;;;5111927;28;20206;-69
2022/03/11 04:47:33;;;;;;;68.53;9.30;;;;;;;;;;5111484;28;20239;-70
2022/03/11 04:50:00;;;;;;;71.15;10.60;;;;;;;;;;5112182;28;20551;-68
2022/03/11 04:52:27;;;;;;;69.32;9.77;;;;;;;;;;5111773;28;20881;-70
2022/03/11 04:54:54;;;;;;;67.57;9.27;;;;;;;;;;5112012;28;20199;-69
2022/03/11 04:57:21;;;;;;;68.70;9.68;;;;;;;;;;5111506;28;20230;-69
2022/03/11 04:59:50;;;;;;;71.95;9.90;;;;;;;;;;5111874;28;20207;-72
2022/03/11 05:02:25;;;;;;;70.70;10.57;;;;;;;;;;5111813;28;20195;-69
2022/03/11 05:04:52;;;;;;;70.97;10.73;;;;;;;;;;5111925;28;20210;-69
2022/03/11 05:07:19;;;;;;;68.55;10.38;;;;;;;;;;5111095;28;20624;-70
2022/03/11 05:09:46;;;;;;;70.75;9.20;;;;;;;;;;5111674;28;20208;-69
2022/03/11 05:12:13;;;;;;;69.90;9.52;;;;;;;;;;5111911;28;20234;-69
2022/03/11 05:14:40;;;;;;;72.07;9.23;;;;;;;;;;5111763;28;20690;-69
2022/03/11 05:17:09;;;;;;;69.25;9.38;;;;;;;;;;5113214;28;20269;-73
2022/03/11 05:19:36;;;;;;;72.90;11.05;;;;;;;;;;5115615;28;20731;-69
2022/03/11 05:22:03;;;;;;;68.28;9.27;;;;;;;;;;5116001;28;20196;-71
2022/03/11 05:24:30;;;;;;;68.07;8.55;;;;;;;;;;5115302;28;20684;-69
2022/03/11 05:26:58;;;;;;;68.93;8.90;;;;;;;;;;5115676;28;20233;-70
2022/03/11 05:29:25;;;;;;;64.65;8.02;;;;;;;;;;5114956;28;20290;-69
2022/03/11 05:31:52;;;;;;;69.45;9.05;;;;;;;;;;5115412;28;20627;-69
2022/03/11 05:34:20;;;;;;;66.22;8.20;;;;;;;;;;5115349;28;20199;-69
2022/03/11 05:36:48;;;;;;;64.25;7.88;;;;;;;;;;5115116;28;20238;-70
2022/03/11 05:39:15;;;;;;;67.22;9.70;;;;;;;;;;5114788;28;20292;-68
2022/03/11 05:41:42;;;;;;;69.45;10.15;;;;;;;;;;5115383;28;20560;-69
2022/03/11 05:44:09;;;;;;;69.00;9.25;;;;;;;;;;5115260;28;20210;-70
2022/03/11 05:46:36;;;;;;;66.10;7.75;;;;;;;;;;5115324;28;20258;-69
2022/03/11 05:49:04;;;;;;;67.93;8.77;;;;;;;;;;5114485;28;20564;-69
2022/03/11 05:51:32;;;;;;;68.95;7.57;;;;;;;;;;5115183;28;20231;-69
2022/03/11 05:54:00;;;;;;;66.90;8.57;;;;;;;;;;5114939;28;20199;-68
2022/03/11 05:56:27;;;;;;;69.38;8.25;;;;;;;;;;5114871;28;20228;-69
2022/03/11 05:58:54;;;;;;;71.10;8.48;;;;;;;;;;5114232;28;20204;-68
2022/03/11 06:01:21;;;;;;;65.15;8.05;;;;;;;;;;5114999;28;20583;-69
2022/03/11 06:03:48;;;;;;;65.45;7.85;;;;;;;;;;5114624;28;20231;-69
2022/03/11 06:06:15;;;;;;;66.20;7.70;;;;;;;;;;5114933;28;20227;-68
2022/03/11 06:08:44;;;;;;;70.07;7.95;;;;;;;;;;5114161;28;20295;-68
2022/03/11 06:11:11;;;;;;;65.90;7.93;;;;;;;;;;5114637;28;20204;-66
2022/03/11 06:13:38;;;;;;;65.32;8.25;;;;;;;;;;5114561;28;20203;-70
2022/03/11 06:16:06;;;;;;;66.60;7.43;;;;;;;;;;5114552;28;20223;-67
2022/03/11 06:18:33;;;;;;;66.72;6.93;;;;;;;;;;5113703;28;20207;-67
2022/03/11 06:21:00;;;;;;;73.03;7.43;;;;;;;;;;5114652;28;20581;-67
2022/03/11 06:23:29;;;;;;;67.00;7.95;;;;;;;;;;5114246;27;20294;-67
2022/03/11 06:25:58;;;;;;;68.20;7.88;;;;;;;;;;5114259;28;20297;-67
2022/03/11 06:28:25;;;;;;;65.57;7.45;;;;;;;;;;5113479;27;20207;-67
2022/03/11 06:30:52;;;;;;;65.30;7.65;;;;;;;;;;5114165;28;20211;-67
2022/03/11 06:33:20;;;;;;;65.90;6.85;;;;;;;;;;5114405;28;20223;-67
2022/03/11 06:35:47;;;;;;;66.10;7.82;;;;;;;;;;5114010;28;20219;-68
2022/03/11 06:38:15;;;;;;;66.28;7.75;;;;;;;;;;5113449;28;20216;-68
2022/03/11 06:40:42;;;;;;;66.80;7.47;;;;;;;;;;5113935;28;20210;-68
2022/03/11 06:43:11;;;;;;;65.53;7.25;;;;;;;;;;5113880;28;20676;-68
2022/03/11 06:45:38;;;;;;;67.38;8.20;;;;;;;;;;5113735;28;20319;-68
2022/03/11 06:48:06;;;;;;;70.57;8.88;;;;;;;;;;5113337;28;20215;-70
2022/03/11 06:50:33;;;;;;;63.92;8.25;;;;;;;;;;5114017;28;20207;-67
2022/03/11 06:53:00;;;;;;;66.20;7.82;;;;;;;;;;5113659;28;20730;-68
2022/03/11 06:55:27;;;;;;;64.18;7.70;;;;;;;;;;5113668;28;20315;-68
2022/03/11 06:57:54;;;;;;;64.30;7.63;;;;;;;;;;5112962;28;20302;-68
2022/03/11 07:00:23;;;;;;;64.68;7.65;;;;;;;;;;5113985;28;20567;-67
2022/03/11 07:02:50;;;;;;;65.28;7.28;;;;;;;;;;5113781;28;20227;-69
2022/03/11 07:05:17;;;;;;;65.25;7.63;;;;;;;;;;5113623;28;20570;-68
2022/03/11 07:07:45;;;;;;;65.35;8.35;;;;;;;;;;5112925;28;20640;-68
2022/03/11 07:10:12;;;;;;;65.50;8.02;;;;;;;;;;5113234;28;20208;-70
2022/03/11 07:12:39;;;;;;;67.22;8.27;;;;;;;;;;5113149;28;20255;-68
2022/03/11 07:15:07;;;;;;;64.88;7.75;;;;;;;;;;5113478;28;20209;-68
2022/03/11 07:17:36;;;;;;;67.22;7.72;;;;;;;;;;5112799;28;20696;-68
2022/03/11 07:20:04;;;;;;;64.90;7.28;;;;;;;;;;5113323;28;20199;-67
2022/03/11 07:22:32;;;;;;;64.30;7.32;;;;;;;;;;5113348;27;20660;-68
2022/03/11 07:25:00;;;;;;;66.18;8.60;;;;;;;;;;5113259;28;20230;-67
2022/03/11 07:27:27;;;;;;;66.40;8.10;;;;;;;;;;5112700;28;20260;-68
2022/03/11 07:29:56;;;;;;;66.07;8.38;;;;;;;;;;5113180;28;20298;-68
2022/03/11 07:32:23;;;;;;;64.53;7.78;;;;;;;;;;5113060;28;20223;-68
2022/03/11 07:34:51;;;;;;;66.60;8.10;;;;;;;;;;5113038;28;20199;-67
2022/03/11 07:37:20;;;;;;;63.00;7.57;;;;;;;;;;5112262;28;20227;-67
2022/03/11 07:39:47;;;;;;;65.90;7.72;;;;;;;;;;5112307;28;20272;-69
2022/03/11 07:42:14;;;;;;;68.03;8.15;;;;;;;;;;5112722;28;20204;-72
2022/03/11 07:44:42;;;;;;;69.75;7.88;;;;;;;;;;5112876;28;20203;-68
2022/03/11 07:47:09;;;;;;;76.88;8.00;;;;;;;;;;5112504;28;20318;-70
2022/03/11 07:49:36;;;;;;;66.88;8.07;;;;;;;;;;5112861;28;20200;-68
2022/03/11 07:52:05;;;;;;;67.60;8.30;;;;;;;;;;5112664;28;20310;-69
2022/03/11 07:54:33;;;;;;;64.63;7.60;;;;;;;;;;5112724;28;20207;-68
2022/03/11 07:57:00;;;;;;;65.43;7.80;;;;;;;;;;5112598;28;20314;-68
2022/03/11 07:59:31;;;;;;;66.00;8.30;;;;;;;;;;5112163;28;20576;-67
2022/03/11 08:01:59;;;;;;;64.47;7.28;;;;;;;;;;5112734;28;20624;-67
2022/03/11 08:04:26;;;;;;;67.28;7.65;;;;;;;;;;5112487;28;20654;-68
2022/03/11 08:06:54;;;;;;;68.18;8.10;;;;;;;;;;5112350;28;20242;-70
2022/03/11 08:09:22;;;;;;;66.28;7.88;;;;;;;;;;5111805;28;20207;-68
2022/03/11 08:11:49;;;;;;;67.15;7.88;;;;;;;;;;5112587;28;20203;-68
2022/03/11 08:14:16;;;;;;;66.75;8.20;;;;;;;;;;5112504;28;20302;-67
2022/03/11 08:16:43;;;;;;;70.30;7.30;;;;;;;;;;5112402;28;20311;-68
2022/03/11 08:19:11;;;;;;;66.50;8.18;;;;;;;;;;5111614;28;20206;-69
2022/03/11 08:21:38;;;;;;;65.25;8.40;;;;;;;;;;5112599;28;20214;-68
2022/03/11 08:24:05;;;;;;;67.97;7.53;;;;;;;;;;5112694;28;20210;-68
2022/03/11 08:26:34;;;;;;;65.43;7.57;;;;;;;;;;5112660;28;20254;-69
2022/03/11 08:29:01;;;;;;;65.53;6.80;;;;;;;;;;5111862;28;20209;-68
2022/03/11 08:31:28;;;;;;;67.28;8.07;;;;;;;;;;5112347;28;20297;-69
2022/03/11 08:33:55;;;;;;;64.97;7.32;;;;;;;;;;5111867;28;20677;-68
2022/03/11 08:36:22;;;;;;;66.43;8.27;;;;;;;;;;5112313;28;20223;-69
2022/03/11 08:38:50;;;;;;;71.43;8.75;;;;;;;;;;5111598;28;20226;-68
2022/03/11 08:41:17;;;;;;;66.18;7.53;;;;;;;;;;5112077;28;20199;-68
2022/03/11 08:43:49;;;;;;;63.88;7.25;;;;;;;;;;5112134;28;20204;-68
2022/03/11 08:46:16;;;;;;;72.47;8.07;;;;;;;;;;5111946;28;20227;-68
2022/03/11 08:48:44;;;;;;;66.00;8.30;;;;;;;;;;5111487;28;20301;-68
2022/03/11 08:51:12;;;;;;;67.32;7.88;;;;;;;;;;5112549;28;20585;-69
2022/03/11 08:53:39;;;;;;;67.45;8.63;;;;;;;;;;5116145;28;20219;-69
2022/03/11 08:56:06;;;;;;;64.93;8.27;;;;;;;;;;5116051;28;20238;-69
2022/03/11 08:58:33;;;;;;;67.45;9.13;;;;;;;;;;5115408;28;20233;-69
2022/03/11 09:01:02;;;;;;;71.88;7.40;;;;;;;;;;5115867;28;20214;-69
2022/03/11 09:03:29;;;;;;;69.53;7.50;;;;;;;;;;5116189;28;20291;-69
2022/03/11 09:05:58;;;;;;;68.63;9.18;;;;;;;;;;5116159;27;20234;-68
2022/03/11 09:08:25;;;;;;;64.57;7.35;;;;;;;;;;5115334;28;20635;-68
2022/03/11 09:10:53;;;;;;;67.00;8.10;;;;;;;;;;5115825;28;20250;-68
2022/03/11 09:13:20;;;;;;;69.03;8.48;;;;;;;;;;5115756;28;20587;-67
2022/03/11 09:15:47;;;;;;;71.28;8.18;;;;;;;;;;5115608;28;20262;-67
2022/03/11 09:18:16;;;;;;;66.38;8.30;;;;;;;;;;5115032;28;20739;-68
2022/03/11 09:20:43;;;;;;;66.22;7.93;;;;;;;;;;5115846;28;20639;-68
2022/03/11 09:23:11;;;;;;;65.47;8.93;;;;;;;;;;5115665;28;20199;-67
2022/03/11 09:25:38;;;;;;;64.90;7.40;;;;;;;;;;5115587;28;20727;-68
2022/03/11 09:28:06;;;;;;;64.28;7.53;;;;;;;;;;5114651;28;20210;-70
2022/03/11 09:30:33;;;;;;;66.97;7.80;;;;;;;;;;5115263;28;20298;-69
2022/03/11 09:33:00;;;;;;;67.85;8.90;;;;;;;;;;5115412;28;20318;-69
2022/03/11 09:35:29;;;;;;;67.38;8.48;;;;;;;;;;5115326;28;20234;-68
2022/03/11 09:37:56;;;;;;;67.53;8.35;;;;;;;;;;5114679;27;20218;-71
2022/03/11 09:40:23;;;;;;;66.93;8.18;;;;;;;;;;5115196;28;20214;-69
2022/03/11 09:42:51;;;;;;;71.90;8.75;;;;;;;;;;5115063;28;20231;-69
2022/03/11 09:45:20;;;;;;;67.47;8.15;;;;;;;;;;5115058;28;20229;-71
2022/03/11 09:47:47;;;;;;;70.28;8.82;;;;;;;;;;5114673;28;20310;-69
2022/03/11 09:50:14;;;;;;;70.78;9.40;;;;;;;;;;5115110;28;20239;-71
2022/03/11 09:52:43;;;;;;;65.50;7.93;;;;;;;;;;5114869;28;20222;-69
2022/03/11 09:55:10;;;;;;;67.50;8.20;;;;;;;;;;5114830;28;20204;-69
2022/03/11 09:57:38;;;;;;;67.37;7.77;;;;;;;;;;5114467;28;20442;-69
2022/03/11 10:00:06;;;;;;;66.43;8.10;;;;;;;;;;5115029;28;20477;-69
2022/03/11 10:02:33;;;;;;;68.73;8.40;;;;;;;;;;5114279;28;20527;-69
2022/03/11 10:05:00;;;;;;;67.10;8.70;;;;;;;;;;5114839;28;20446;-69
2022/03/11 10:07:28;;;;;;;66.37;8.57;;;;;;;;;;5114020;28;20903;-69
2022/03/11 10:09:57;;;;;;;67.00;9.20;;;;;;;;;;5114630;28;20464;-70
2022/03/11 10:12:25;;;;;;;67.40;8.87;;;;;;;;;;5114757;28;20447;-69
2022/03/11 10:14:56;;;;;;;69.80;9.30;;;;;;;;;;5114928;28;20554;-70
2022/03/11 10:17:23;;;;;;;68.07;9.70;;;;;;;;;;5113968;28;20963;-70
2022/03/11 10:20:00;;;;;;;67.47;8.73;;;;;;;;;;5114771;28;20477;-67
2022/03/11 10:22:27;;;;;;;67.50;8.77;;;;;;;;;;5114812;27;20432;-70
2022/03/11 10:24:55;;;;;;;67.60;9.30;;;;;;;;;;5114820;28;20494;-70
2022/03/11 10:27:24;;;;;;;66.07;9.87;;;;;;;;;;5113886;28;20524;-68
2022/03/11 10:29:52;;;;;;;65.40;8.87;;;;;;;;;;5114311;28;20950;-69
2022/03/11 10:32:25;;;;;;;66.70;8.70;;;;;;;;;;5114294;28;20448;-68
2022/03/11 10:34:52;;;;;;;67.17;8.57;;;;;;;;;;5114666;28;20872;-68
2022/03/11 10:37:20;;;;;;;67.53;8.50;;;;;;;;;;5113758;28;20487;-70
2022/03/11 10:39:48;;;;;;;66.00;8.73;;;;;;;;;;5114193;28;20930;-68
2022/03/11 10:42:16;;;;;;;68.87;9.57;;;;;;;;;;5114147;28;20451;-69
2022/03/11 10:44:55;;;;;;;66.17;8.93;;;;;;;;;;5114048;28;20523;-69
2022/03/11 10:47:23;;;;;;;68.10;9.40;;;;;;;;;;5113185;28;20542;-69
2022/03/11 10:49:51;;;;;;;66.70;9.27;;;;;;;;;;5113943;28;20939;-69
2022/03/11 10:52:28;;;;;;;65.50;8.87;;;;;;;;;;5113775;28;20560;-70
2022/03/11 10:54:56;;;;;;;63.37;7.80;;;;;;;;;;5109894;28;20455;-70
2022/03/11 10:57:34;;;;;;;70.20;10.90;;;;;;;;;;5111842;28;20447;-69
2022/03/11 11:00:16;;;;;;;68.37;9.17;;;;;;;;;;5112731;28;20819;-70
2022/03/11 11:02:44;;;;;;;65.37;9.10;;;;;;;;;;5112118;28;20544;-70
2022/03/11 11:05:12;;;;;;;67.20;9.00;;;;;;;;;;5112952;28;20532;-68
2022/03/11 11:07:41;;;;;;;65.53;9.67;;;;;;;;;;5099445;28;20482;-69
2022/03/11 11:10:08;;;;;;;69.03;9.53;;;;;;;;;;5091792;28;20443;-69
2022/03/11 11:12:35;;;;;;;65.20;8.87;;;;;;;;;;5092451;28;20442;-69
2022/03/11 11:15:03;;;;;;;67.20;9.43;;;;;;;;;;5091080;28;20454;-71
2022/03/11 11:17:33;;;;;;;65.90;9.13;;;;;;;;;;5091926;28;20452;-69
2022/03/11 11:20:02;;;;;;;68.00;8.60;;;;;;;;;;5092865;28;20442;-69
2022/03/11 11:22:30;;;;;;;66.60;9.23;;;;;;;;;;5092243;28;20447;-69
2022/03/11 11:24:57;;;;;;;64.87;9.30;;;;;;;;;;5092280;28;20460;-70
2022/03/11 11:27:25;;;;;;;65.93;9.30;;;;;;;;;;5091951;28;20452;-68
2022/03/11 11:29:52;;;;;;;65.80;9.13;;;;;;;;;;5092589;28;20573;-69
2022/03/11 11:32:20;;;;;;;67.17;9.10;;;;;;;;;;5092748;28;20448;-70
2022/03/11 11:34:49;;;;;;;64.80;8.50;;;;;;;;;;5091912;28;20488;-69
2022/03/11 11:37:35;;;;;;;65.97;9.00;;;;;;;;;;5091397;28;20504;-69
2022/03/11 11:40:17;;;;;;;64.97;8.50;;;;;;;;;;5092683;28;20454;-69
2022/03/11 11:43:10;;;;;;;67.43;9.27;;;;;;;;;;5092431;28;20458;-68
2022/03/11 11:45:42;;;;;;;68.27;9.30;;;;;;;;;;5091589;28;20470;-69
2022/03/11 11:48:41;;;;;;;66.07;9.20;;;;;;;;;;5091521;28;20849;-69
2022/03/11 11:51:11;;;;;;;69.40;9.60;;;;;;;;;;5092147;28;20511;-69
2022/03/11 11:53:40;;;;;;;68.10;10.37;;;;;;;;;;5092128;28;20953;-69
2022/03/11 11:56:22;;;;;;;66.53;9.50;;;;;;;;;;5091116;28;20480;-69
2022/03/11 11:58:50;;;;;;;63.27;7.93;;;;;;;;;;5091544;28;20451;-69
2022/03/11 12:01:40;;;;;;;67.70;9.67;;;;;;;;;;5092169;28;20452;-69
2022/03/11 12:04:21;;;;;;;65.13;8.43;;;;;;;;;;5092073;28;20477;-70
2022/03/11 12:06:57;;;;;;;68.80;9.40;;;;;;;;;;5091824;28;20539;-69
2022/03/11 12:09:45;;;;;;;64.87;9.20;;;;;;;;;;5091521;28;20442;-71
2022/03/11 12:12:28;;;;;;;65.63;8.87;;;;;;;;;;5101011;28;20528;-71
2022/03/11 12:15:11;;;;;;;68.57;10.97;;;;;;;;;;5111274;28;20488;-69
2022/03/11 12:17:39;;;;;;;67.90;9.30;;;;;;;;;;5109781;28;20490;-69
2022/03/11 12:20:24;;;;;;;66.80;9.03;;;;;;;;;;5112326;28;20441;-69
2022/03/11 12:22:54;;;;;;;65.30;8.80;;;;;;;;;;5111378;28;20446;-70
2022/03/11 12:25:22;;;;;;;66.10;9.00;;;;;;;;;;5111244;28;20521;-69
2022/03/11 12:27:59;;;;;;;67.27;10.20;;;;;;;;;;5111316;28;20448;-69
2022/03/11 12:30:27;;;;;;;67.77;9.70;;;;;;;;;;5112432;28;20541;-71
2022/03/11 12:32:54;;;;;;;67.20;9.60;;;;;;;;;;5111554;28;20537;-69
2022/03/11 12:35:22;;;;;;;65.77;9.97;;;;;;;;;;5111041;28;20899;-70
2022/03/11 12:37:49;;;;;;;64.37;8.07;;;;;;;;;;5110506;28;20461;-69
2022/03/11 12:40:20;;;;;;;64.87;8.90;;;;;;;;;;5112141;28;20550;-68
2022/03/11 12:42:47;;;;;;;66.20;9.50;;;;;;;;;;5109968;28;20473;-68
2022/03/11 12:45:15;;;;;;;65.07;9.70;;;;;;;;;;5107444;28;20481;-68
2022/03/11 12:47:42;;;;;;;65.63;9.43;;;;;;;;;;5111006;28;20446;-68
2022/03/11 12:50:12;;;;;;;68.13;10.27;;;;;;;;;;5110576;28;20828;-70
2022/03/11 12:52:40;;;;;;;68.60;9.97;;;;;;;;;;5110861;28;20450;-68
2022/03/11 12:55:25;;;;;;;66.17;9.47;;;;;;;;;;5111022;28;20961;-68
2022/03/11 12:57:54;;;;;;;71.70;9.27;;;;;;;;;;5111012;28;20444;-68
2022/03/11 13:00:23;;;;;;;66.03;10.00;;;;;;;;;;5111741;28;20442;-69
2022/03/11 13:02:50;;;;;;;66.00;9.33;;;;;;;;;;5111805;28;20462;-69
2022/03/11 13:05:21;;;;;;;67.50;9.60;;;;;;;;;;5111494;28;20485;-69
2022/03/11 13:07:48;;;;;;;65.77;9.23;;;;;;;;;;5111522;28;20485;-69
2022/03/11 13:10:22;;;;;;;67.30;10.33;;;;;;;;;;5111585;28;20589;-68
2022/03/11 13:12:51;;;;;;;68.87;10.43;;;;;;;;;;5111557;28;20481;-69
2022/03/11 13:15:23;;;;;;;66.83;10.67;;;;;;;;;;5107440;28;20473;-70
2022/03/11 13:17:52;;;;;;;68.53;9.43;;;;;;;;;;5110169;28;20453;-68
2022/03/11 13:20:29;;;;;;;70.00;9.73;;;;;;;;;;5111629;28;20445;-68
2022/03/11 13:22:57;;;;;;;65.80;9.13;;;;;;;;;;5111589;28;20792;-68
2022/03/11 13:25:24;;;;;;;67.60;10.47;;;;;;;;;;5111174;28;21116;-68
2022/03/11 13:27:52;;;;;;;65.10;8.83;;;;;;;;;;5111071;28;20798;-67
2022/03/11 13:30:30;;;;;;;66.50;9.87;;;;;;;;;;5111717;28;20452;-68
2022/03/11 13:32:58;;;;;;;66.90;10.57;;;;;;;;;;5111406;28;20499;-68
2022/03/11 13:35:28;;;;;;;65.63;9.00;;;;;;;;;;5111235;28;20574;-69
2022/03/11 13:37:57;;;;;;;65.77;8.97;;;;;;;;;;5111313;28;20529;-69
2022/03/11 13:40:25;;;;;;;68.23;10.30;;;;;;;;;;5115477;27;20458;-70
2022/03/11 13:42:55;;;;;;;68.33;12.60;;;;;;;;;;5115451;28;20450;-69
2022/03/11 13:45:27;;;;;;;67.10;9.57;;;;;;;;;;5114888;28;21061;-70
2022/03/11 13:48:06;;;;;;;67.07;8.27;;;;;;;;;;5111235;28;20455;-72
2022/03/11 13:50:34;;;;;;;65.90;8.60;;;;;;;;;;5114847;28;20453;-69
2022/03/11 13:53:02;;;;;;;64.77;8.90;;;;;;;;;;5114819;27;20466;-72
2022/03/11 13:55:36;;;;;;;65.77;9.80;;;;;;;;;;5114360;28;21067;-70
2022/03/11 13:58:20;;;;;;;68.07;10.07;;;;;;;;;;5113211;28;20833;-69
2022/03/11 14:00:48;;;;;;;65.23;8.80;;;;;;;;;;5115296;28;20456;-69
2022/03/11 14:03:19;;;;;;;66.00;9.70;;;;;;;;;;5114701;27;21084;-69
2022/03/11 14:05:47;;;;;;;67.77;9.83;;;;;;;;;;5114535;28;20485;-69
2022/03/11 14:08:22;;;;;;;68.83;10.37;;;;;;;;;;5114104;28;20447;-69
2022/03/11 14:10:49;;;;;;;66.90;10.50;;;;;;;;;;5114714;28;20457;-71
2022/03/11 14:13:21;;;;;;;69.00;10.00;;;;;;;;;;5114422;28;20450;-69
2022/03/11 14:15:48;;;;;;;67.80;9.40;;;;;;;;;;5114113;28;20469;-69
2022/03/11 14:18:16;;;;;;;66.47;10.60;;;;;;;;;;5108385;28;20451;-72
2022/03/11 14:20:45;;;;;;;73.30;11.60;;;;;;;;;;5093737;28;20523;-68
2022/03/11 14:23:13;;;;;;;66.17;9.50;;;;;;;;;;5094031;28;20885;-68
2022/03/11 14:25:40;;;;;;;68.17;10.13;;;;;;;;;;5093085;28;20488;-70
2022/03/11 14:28:08;;;;;;;66.40;10.27;;;;;;;;;;5092692;28;20452;-68
2022/03/11 14:30:36;;;;;;;69.13;10.90;;;;;;;;;;5093791;28;21018;-68
2022/03/11 14:33:03;;;;;;;67.60;10.20;;;;;;;;;;5093791;28;20542;-68